sensor_id;sensor_type;location;lat;lon;timestamp;P1;durP1;ratioP1;P2;durP2;ratioP2
75854;SDS011;64502;59.976;30.316;2023-03-15T00:04:12;7.32;;;4.55;;
75854;SDS011;64502;59.976;30.316;2023-03-15T00:06:39;8.85;;;4.75;;
75854;SDS011;64502;59.976;30.316;2023-03-15T00:09:05;6.85;;;3.92;;
75854;SDS011;64502;59.976;30.316;2023-03-15T00:11:34;8.75;;;4.72;;
75854;SDS011;64502;59.976;30.316;2023-03-15T00:13:59;8.30;;;4.95;;
75854;SDS011;64502;59.976;30.316;2023-03-15T00:16:26;10.10;;;4.78;;
75854;SDS011;64502;59.976;30.316;2023-03-15T00:18:52;9.45;;;5.05;;
75854;SDS011;64502;59.976;30.316;2023-03-15T00:21:19;8.82;;;4.60;;
75854;SDS011;64502;59.976;30.316;2023-03-15T00:23:45;9.02;;;5.07;;
75854;SDS011;64502;59.976;30.316;2023-03-15T00:26:11;9.77;;;4.53;;
75854;SDS011;64502;59.976;30.316;2023-03-15T00:28:37;8.70;;;4.85;;
75854;SDS011;64502;59.976;30.316;2023-03-15T00:31:04;10.30;;;4.75;;
75854;SDS011;64502;59.976;30.316;2023-03-15T00:33:31;7.22;;;4.13;;
75854;SDS011;64502;59.976;30.316;2023-03-15T00:36:08;11.23;;;5.05;;
75854;SDS011;64502;59.976;30.316;2023-03-15T00:38:35;10.07;;;4.72;;
75854;SDS011;64502;59.976;30.316;2023-03-15T00:41:06;12.70;;;5.00;;
75854;SDS011;64502;59.976;30.316;2023-03-15T00:43:33;8.25;;;4.82;;
75854;SDS011;64502;59.976;30.316;2023-03-15T00:45:59;10.55;;;5.05;;
75854;SDS011;64502;59.976;30.316;2023-03-15T00:48:25;10.45;;;4.68;;
75854;SDS011;64502;59.976;30.316;2023-03-15T00:51:00;9.02;;;4.85;;
75854;SDS011;64502;59.976;30.316;2023-03-15T00:53:35;9.57;;;5.25;;
75854;SDS011;64502;59.976;30.316;2023-03-15T00:56:05;12.27;;;5.55;;
75854;SDS011;64502;59.976;30.316;2023-03-15T00:58:32;10.18;;;4.88;;
75854;SDS011;64502;59.976;30.316;2023-03-15T01:00:57;9.38;;;4.55;;
75854;SDS011;64502;59.976;30.316;2023-03-15T01:03:23;9.88;;;4.93;;
75854;SDS011;64502;59.976;30.316;2023-03-15T01:05:49;8.95;;;4.95;;
75854;SDS011;64502;59.976;30.316;2023-03-15T01:08:14;11.18;;;5.13;;
75854;SDS011;64502;59.976;30.316;2023-03-15T01:10:40;10.13;;;5.20;;
75854;SDS011;64502;59.976;30.316;2023-03-15T01:13:05;10.88;;;5.47;;
75854;SDS011;64502;59.976;30.316;2023-03-15T01:15:31;12.27;;;5.28;;
75854;SDS011;64502;59.976;30.316;2023-03-15T01:17:57;8.00;;;5.03;;
75854;SDS011;64502;59.976;30.316;2023-03-15T01:20:22;8.88;;;5.20;;
75854;SDS011;64502;59.976;30.316;2023-03-15T01:22:48;10.93;;;4.93;;
75854;SDS011;64502;59.976;30.316;2023-03-15T01:25:13;10.20;;;5.03;;
75854;SDS011;64502;59.976;30.316;2023-03-15T01:27:38;8.48;;;4.78;;
75854;SDS011;64502;59.976;30.316;2023-03-15T01:30:04;11.35;;;5.22;;
75854;SDS011;64502;59.976;30.316;2023-03-15T01:32:30;10.15;;;5.45;;
75854;SDS011;64502;59.976;30.316;2023-03-15T01:34:56;12.32;;;5.75;;
75854;SDS011;64502;59.976;30.316;2023-03-15T01:37:21;12.10;;;5.57;;
75854;SDS011;64502;59.976;30.316;2023-03-15T01:39:48;7.35;;;4.90;;
75854;SDS011;64502;59.976;30.316;2023-03-15T01:42:14;11.80;;;5.10;;
75854;SDS011;64502;59.976;30.316;2023-03-15T01:44:47;11.65;;;5.55;;
75854;SDS011;64502;59.976;30.316;2023-03-15T01:47:15;13.82;;;5.70;;
75854;SDS011;64502;59.976;30.316;2023-03-15T01:49:41;14.15;;;6.57;;
75854;SDS011;64502;59.976;30.316;2023-03-15T01:52:10;15.95;;;5.95;;
75854;SDS011;64502;59.976;30.316;2023-03-15T01:54:39;11.82;;;4.88;;
75854;SDS011;64502;59.976;30.316;2023-03-15T01:59:43;12.80;;;6.00;;
75854;SDS011;64502;59.976;30.316;2023-03-15T02:02:13;10.95;;;5.13;;
75854;SDS011;64502;59.976;30.316;2023-03-15T02:04:40;12.93;;;6.43;;
75854;SDS011;64502;59.976;30.316;2023-03-15T02:07:10;9.20;;;5.07;;
75854;SDS011;64502;59.976;30.316;2023-03-15T02:09:53;12.18;;;4.95;;
75854;SDS011;64502;59.976;30.316;2023-03-15T02:12:25;11.00;;;5.10;;
75854;SDS011;64502;59.976;30.316;2023-03-15T02:14:52;12.65;;;5.75;;
75854;SDS011;64502;59.976;30.316;2023-03-15T02:17:18;11.90;;;5.13;;
75854;SDS011;64502;59.976;30.316;2023-03-15T02:19:52;12.02;;;6.18;;
75854;SDS011;64502;59.976;30.316;2023-03-15T02:22:35;14.13;;;6.10;;
75854;SDS011;64502;59.976;30.316;2023-03-15T02:25:07;14.95;;;6.68;;
75854;SDS011;64502;59.976;30.316;2023-03-15T02:27:43;11.50;;;6.30;;
75854;SDS011;64502;59.976;30.316;2023-03-15T02:30:09;11.80;;;4.78;;
75854;SDS011;64502;59.976;30.316;2023-03-15T02:32:35;16.10;;;7.15;;
75854;SDS011;64502;59.976;30.316;2023-03-15T02:35:01;11.80;;;5.03;;
75854;SDS011;64502;59.976;30.316;2023-03-15T02:37:26;15.10;;;6.20;;
75854;SDS011;64502;59.976;30.316;2023-03-15T02:39:52;13.13;;;6.10;;
75854;SDS011;64502;59.976;30.316;2023-03-15T02:42:17;13.18;;;6.07;;
75854;SDS011;64502;59.976;30.316;2023-03-15T02:44:44;13.77;;;6.25;;
75854;SDS011;64502;59.976;30.316;2023-03-15T02:47:20;14.48;;;5.63;;
75854;SDS011;64502;59.976;30.316;2023-03-15T02:49:51;18.45;;;8.52;;
75854;SDS011;64502;59.976;30.316;2023-03-15T02:52:18;15.25;;;6.57;;
75854;SDS011;64502;59.976;30.316;2023-03-15T02:54:44;13.65;;;6.95;;
75854;SDS011;64502;59.976;30.316;2023-03-15T02:57:10;13.10;;;6.70;;
75854;SDS011;64502;59.976;30.316;2023-03-15T02:59:37;14.70;;;6.25;;
75854;SDS011;64502;59.976;30.316;2023-03-15T03:02:02;15.68;;;6.38;;
75854;SDS011;64502;59.976;30.316;2023-03-15T03:04:28;16.55;;;6.95;;
75854;SDS011;64502;59.976;30.316;2023-03-15T03:06:54;11.52;;;5.75;;
75854;SDS011;64502;59.976;30.316;2023-03-15T03:09:19;13.45;;;5.60;;
75854;SDS011;64502;59.976;30.316;2023-03-15T03:11:45;12.70;;;5.53;;
75854;SDS011;64502;59.976;30.316;2023-03-15T03:14:10;12.13;;;6.78;;
75854;SDS011;64502;59.976;30.316;2023-03-15T03:16:38;13.75;;;6.30;;
75854;SDS011;64502;59.976;30.316;2023-03-15T03:19:04;17.83;;;6.90;;
75854;SDS011;64502;59.976;30.316;2023-03-15T03:21:30;15.23;;;7.85;;
75854;SDS011;64502;59.976;30.316;2023-03-15T03:23:55;10.88;;;5.57;;
75854;SDS011;64502;59.976;30.316;2023-03-15T03:26:21;12.38;;;5.63;;
75854;SDS011;64502;59.976;30.316;2023-03-15T03:28:51;13.48;;;6.38;;
75854;SDS011;64502;59.976;30.316;2023-03-15T03:31:22;15.23;;;8.20;;
75854;SDS011;64502;59.976;30.316;2023-03-15T03:33:49;13.38;;;5.97;;
75854;SDS011;64502;59.976;30.316;2023-03-15T03:36:15;13.57;;;6.47;;
75854;SDS011;64502;59.976;30.316;2023-03-15T03:38:41;19.30;;;7.18;;
75854;SDS011;64502;59.976;30.316;2023-03-15T03:41:08;17.38;;;7.50;;
75854;SDS011;64502;59.976;30.316;2023-03-15T03:43:34;16.83;;;7.25;;
75854;SDS011;64502;59.976;30.316;2023-03-15T03:46:00;15.52;;;6.57;;
75854;SDS011;64502;59.976;30.316;2023-03-15T03:48:27;16.45;;;8.02;;
75854;SDS011;64502;59.976;30.316;2023-03-15T03:50:52;16.30;;;7.63;;
75854;SDS011;64502;59.976;30.316;2023-03-15T03:53:18;18.35;;;7.25;;
75854;SDS011;64502;59.976;30.316;2023-03-15T03:55:43;14.30;;;6.82;;
75854;SDS011;64502;59.976;30.316;2023-03-15T03:58:10;16.30;;;7.38;;
75854;SDS011;64502;59.976;30.316;2023-03-15T04:00:35;15.25;;;7.10;;
75854;SDS011;64502;59.976;30.316;2023-03-15T04:03:01;16.77;;;5.80;;
75854;SDS011;64502;59.976;30.316;2023-03-15T04:05:27;12.60;;;6.35;;
75854;SDS011;64502;59.976;30.316;2023-03-15T04:07:53;19.55;;;7.72;;
75854;SDS011;64502;59.976;30.316;2023-03-15T04:10:18;16.63;;;7.65;;
75854;SDS011;64502;59.976;30.316;2023-03-15T04:12:51;16.13;;;7.60;;
75854;SDS011;64502;59.976;30.316;2023-03-15T04:15:18;15.05;;;7.43;;
75854;SDS011;64502;59.976;30.316;2023-03-15T04:17:43;12.88;;;6.43;;
75854;SDS011;64502;59.976;30.316;2023-03-15T04:20:09;17.85;;;7.10;;
75854;SDS011;64502;59.976;30.316;2023-03-15T04:22:37;16.13;;;7.18;;
75854;SDS011;64502;59.976;30.316;2023-03-15T04:25:02;14.32;;;7.03;;
75854;SDS011;64502;59.976;30.316;2023-03-15T04:27:28;16.95;;;6.68;;
75854;SDS011;64502;59.976;30.316;2023-03-15T04:29:54;18.80;;;7.50;;
75854;SDS011;64502;59.976;30.316;2023-03-15T04:32:20;14.75;;;7.03;;
75854;SDS011;64502;59.976;30.316;2023-03-15T04:34:45;13.95;;;6.47;;
75854;SDS011;64502;59.976;30.316;2023-03-15T04:39:40;18.08;;;7.88;;
75854;SDS011;64502;59.976;30.316;2023-03-15T04:42:06;21.42;;;7.80;;
75854;SDS011;64502;59.976;30.316;2023-03-15T04:44:32;20.77;;;8.02;;
75854;SDS011;64502;59.976;30.316;2023-03-15T04:46:57;17.70;;;8.50;;
75854;SDS011;64502;59.976;30.316;2023-03-15T04:49:23;16.10;;;8.13;;
75854;SDS011;64502;59.976;30.316;2023-03-15T04:51:48;19.73;;;7.95;;
75854;SDS011;64502;59.976;30.316;2023-03-15T04:54:14;16.85;;;7.25;;
75854;SDS011;64502;59.976;30.316;2023-03-15T04:56:39;17.02;;;7.80;;
75854;SDS011;64502;59.976;30.316;2023-03-15T04:59:06;14.43;;;6.68;;
75854;SDS011;64502;59.976;30.316;2023-03-15T05:01:32;19.55;;;7.75;;
75854;SDS011;64502;59.976;30.316;2023-03-15T05:03:57;14.63;;;6.93;;
75854;SDS011;64502;59.976;30.316;2023-03-15T05:06:23;13.40;;;6.10;;
75854;SDS011;64502;59.976;30.316;2023-03-15T05:08:49;16.65;;;7.75;;
75854;SDS011;64502;59.976;30.316;2023-03-15T05:11:15;14.38;;;6.53;;
75854;SDS011;64502;59.976;30.316;2023-03-15T05:13:41;13.25;;;6.10;;
75854;SDS011;64502;59.976;30.316;2023-03-15T05:16:06;12.52;;;6.15;;
75854;SDS011;64502;59.976;30.316;2023-03-15T05:18:31;13.10;;;6.82;;
75854;SDS011;64502;59.976;30.316;2023-03-15T05:20:57;13.82;;;6.45;;
75854;SDS011;64502;59.976;30.316;2023-03-15T05:23:23;12.63;;;7.25;;
75854;SDS011;64502;59.976;30.316;2023-03-15T05:25:53;11.48;;;5.50;;
75854;SDS011;64502;59.976;30.316;2023-03-15T05:28:23;12.00;;;5.82;;
75854;SDS011;64502;59.976;30.316;2023-03-15T05:30:49;13.75;;;6.93;;
75854;SDS011;64502;59.976;30.316;2023-03-15T05:33:16;15.77;;;7.57;;
75854;SDS011;64502;59.976;30.316;2023-03-15T05:35:42;14.55;;;6.18;;
75854;SDS011;64502;59.976;30.316;2023-03-15T05:38:11;11.98;;;6.45;;
75854;SDS011;64502;59.976;30.316;2023-03-15T05:40:41;13.43;;;6.43;;
75854;SDS011;64502;59.976;30.316;2023-03-15T05:43:08;11.02;;;6.22;;
75854;SDS011;64502;59.976;30.316;2023-03-15T05:45:33;12.80;;;6.60;;
75854;SDS011;64502;59.976;30.316;2023-03-15T05:47:59;14.90;;;6.68;;
75854;SDS011;64502;59.976;30.316;2023-03-15T05:50:24;11.50;;;5.95;;
75854;SDS011;64502;59.976;30.316;2023-03-15T05:52:52;10.77;;;5.45;;
75854;SDS011;64502;59.976;30.316;2023-03-15T05:55:18;11.27;;;5.25;;
75854;SDS011;64502;59.976;30.316;2023-03-15T05:57:44;10.48;;;4.53;;
75854;SDS011;64502;59.976;30.316;2023-03-15T06:00:10;11.35;;;6.10;;
75854;SDS011;64502;59.976;30.316;2023-03-15T06:02:39;12.70;;;5.22;;
75854;SDS011;64502;59.976;30.316;2023-03-15T06:05:07;11.23;;;5.45;;
75854;SDS011;64502;59.976;30.316;2023-03-15T06:07:33;10.82;;;5.85;;
75854;SDS011;64502;59.976;30.316;2023-03-15T06:09:58;9.70;;;5.57;;
75854;SDS011;64502;59.976;30.316;2023-03-15T06:12:24;9.95;;;5.25;;
75854;SDS011;64502;59.976;30.316;2023-03-15T06:14:49;12.80;;;6.80;;
75854;SDS011;64502;59.976;30.316;2023-03-15T06:17:15;11.73;;;5.18;;
75854;SDS011;64502;59.976;30.316;2023-03-15T06:19:40;9.63;;;5.68;;
75854;SDS011;64502;59.976;30.316;2023-03-15T06:22:06;10.07;;;5.82;;
75854;SDS011;64502;59.976;30.316;2023-03-15T06:24:31;10.15;;;5.97;;
75854;SDS011;64502;59.976;30.316;2023-03-15T06:26:57;12.13;;;5.38;;
75854;SDS011;64502;59.976;30.316;2023-03-15T06:29:23;10.18;;;5.15;;
75854;SDS011;64502;59.976;30.316;2023-03-15T06:31:49;8.90;;;4.97;;
75854;SDS011;64502;59.976;30.316;2023-03-15T06:34:14;9.63;;;4.85;;
75854;SDS011;64502;59.976;30.316;2023-03-15T06:36:40;8.55;;;4.20;;
75854;SDS011;64502;59.976;30.316;2023-03-15T06:39:09;8.57;;;4.65;;
75854;SDS011;64502;59.976;30.316;2023-03-15T06:41:36;9.52;;;5.35;;
75854;SDS011;64502;59.976;30.316;2023-03-15T06:44:05;9.38;;;5.13;;
75854;SDS011;64502;59.976;30.316;2023-03-15T06:46:32;10.82;;;5.60;;
75854;SDS011;64502;59.976;30.316;2023-03-15T06:48:58;8.43;;;4.50;;
75854;SDS011;64502;59.976;30.316;2023-03-15T06:51:23;12.30;;;5.93;;
75854;SDS011;64502;59.976;30.316;2023-03-15T06:53:49;9.35;;;5.10;;
75854;SDS011;64502;59.976;30.316;2023-03-15T06:56:14;6.50;;;3.88;;
75854;SDS011;64502;59.976;30.316;2023-03-15T06:58:40;9.70;;;5.18;;
75854;SDS011;64502;59.976;30.316;2023-03-15T07:01:05;8.02;;;4.63;;
75854;SDS011;64502;59.976;30.316;2023-03-15T07:03:31;8.48;;;4.82;;
75854;SDS011;64502;59.976;30.316;2023-03-15T07:05:56;12.32;;;4.78;;
75854;SDS011;64502;59.976;30.316;2023-03-15T07:08:23;12.82;;;5.57;;
75854;SDS011;64502;59.976;30.316;2023-03-15T07:10:49;10.55;;;5.60;;
75854;SDS011;64502;59.976;30.316;2023-03-15T07:13:15;8.02;;;3.67;;
75854;SDS011;64502;59.976;30.316;2023-03-15T07:15:42;7.80;;;4.75;;
75854;SDS011;64502;59.976;30.316;2023-03-15T07:18:07;11.52;;;4.90;;
75854;SDS011;64502;59.976;30.316;2023-03-15T07:20:33;10.05;;;5.20;;
75854;SDS011;64502;59.976;30.316;2023-03-15T07:22:58;11.10;;;4.93;;
75854;SDS011;64502;59.976;30.316;2023-03-15T07:25:24;10.45;;;5.55;;
75854;SDS011;64502;59.976;30.316;2023-03-15T07:27:50;9.98;;;5.07;;
75854;SDS011;64502;59.976;30.316;2023-03-15T07:30:16;10.27;;;5.75;;
75854;SDS011;64502;59.976;30.316;2023-03-15T07:32:42;8.73;;;5.30;;
75854;SDS011;64502;59.976;30.316;2023-03-15T07:35:09;8.88;;;5.72;;
75854;SDS011;64502;59.976;30.316;2023-03-15T07:37:34;8.55;;;5.65;;
75854;SDS011;64502;59.976;30.316;2023-03-15T07:40:00;10.77;;;4.85;;
75854;SDS011;64502;59.976;30.316;2023-03-15T07:42:37;9.70;;;4.97;;
75854;SDS011;64502;59.976;30.316;2023-03-15T07:45:04;9.48;;;5.35;;
75854;SDS011;64502;59.976;30.316;2023-03-15T07:47:31;8.07;;;4.53;;
75854;SDS011;64502;59.976;30.316;2023-03-15T07:49:57;9.30;;;5.30;;
75854;SDS011;64502;59.976;30.316;2023-03-15T07:52:23;10.50;;;5.05;;
75854;SDS011;64502;59.976;30.316;2023-03-15T07:54:49;8.77;;;4.93;;
75854;SDS011;64502;59.976;30.316;2023-03-15T07:57:14;10.57;;;5.32;;
75854;SDS011;64502;59.976;30.316;2023-03-15T07:59:40;9.50;;;4.32;;
75854;SDS011;64502;59.976;30.316;2023-03-15T08:02:06;7.60;;;4.75;;
75854;SDS011;64502;59.976;30.316;2023-03-15T08:04:33;8.63;;;4.72;;
75854;SDS011;64502;59.976;30.316;2023-03-15T08:06:59;7.82;;;4.28;;
75854;SDS011;64502;59.976;30.316;2023-03-15T08:09:25;12.18;;;4.20;;
75854;SDS011;64502;59.976;30.316;2023-03-15T08:11:51;10.27;;;4.00;;
75854;SDS011;64502;59.976;30.316;2023-03-15T08:14:16;9.73;;;5.93;;
75854;SDS011;64502;59.976;30.316;2023-03-15T08:16:42;9.35;;;5.35;;
75854;SDS011;64502;59.976;30.316;2023-03-15T08:19:07;7.32;;;4.45;;
75854;SDS011;64502;59.976;30.316;2023-03-15T08:21:33;10.02;;;4.93;;
75854;SDS011;64502;59.976;30.316;2023-03-15T08:23:59;8.70;;;5.18;;
75854;SDS011;64502;59.976;30.316;2023-03-15T08:26:24;8.73;;;4.45;;
75854;SDS011;64502;59.976;30.316;2023-03-15T08:28:50;8.68;;;5.00;;
75854;SDS011;64502;59.976;30.316;2023-03-15T08:31:15;7.70;;;4.75;;
75854;SDS011;64502;59.976;30.316;2023-03-15T08:33:41;10.50;;;5.63;;
75854;SDS011;64502;59.976;30.316;2023-03-15T08:36:07;7.07;;;3.03;;
75854;SDS011;64502;59.976;30.316;2023-03-15T08:38:33;3.33;;;1.40;;
75854;SDS011;64502;59.976;30.316;2023-03-15T08:40:58;2.63;;;0.90;;
75854;SDS011;64502;59.976;30.316;2023-03-15T08:43:24;1.52;;;0.43;;
75854;SDS011;64502;59.976;30.316;2023-03-15T08:45:49;1.23;;;0.30;;
75854;SDS011;64502;59.976;30.316;2023-03-15T08:48:15;2.10;;;0.63;;
75854;SDS011;64502;59.976;30.316;2023-03-15T08:50:41;1.55;;;0.68;;
75854;SDS011;64502;59.976;30.316;2023-03-15T08:53:08;1.23;;;0.20;;
75854;SDS011;64502;59.976;30.316;2023-03-15T08:55:35;1.13;;;0.10;;
75854;SDS011;64502;59.976;30.316;2023-03-15T08:58:01;1.50;;;0.32;;
75854;SDS011;64502;59.976;30.316;2023-03-15T09:00:27;15.77;;;1.10;;
75854;SDS011;64502;59.976;30.316;2023-03-15T09:02:52;1.30;;;0.10;;
75854;SDS011;64502;59.976;30.316;2023-03-15T09:05:20;1.30;;;0.20;;
75854;SDS011;64502;59.976;30.316;2023-03-15T09:07:47;2.50;;;0.20;;
75854;SDS011;64502;59.976;30.316;2023-03-15T09:10:13;0.63;;;0.00;;
75854;SDS011;64502;59.976;30.316;2023-03-15T09:12:43;1.70;;;0.10;;
75854;SDS011;64502;59.976;30.316;2023-03-15T09:15:10;0.90;;;0.10;;
75854;SDS011;64502;59.976;30.316;2023-03-15T09:17:37;0.65;;;0.00;;
75854;SDS011;64502;59.976;30.316;2023-03-15T09:20:03;1.73;;;0.45;;
75854;SDS011;64502;59.976;30.316;2023-03-15T09:22:35;0.75;;;0.10;;
75854;SDS011;64502;59.976;30.316;2023-03-15T09:25:00;0.50;;;0.10;;
75854;SDS011;64502;59.976;30.316;2023-03-15T09:27:28;0.60;;;0.10;;
75854;SDS011;64502;59.976;30.316;2023-03-15T09:29:55;0.63;;;0.00;;
75854;SDS011;64502;59.976;30.316;2023-03-15T09:32:20;1.55;;;0.30;;
75854;SDS011;64502;59.976;30.316;2023-03-15T09:34:45;1.13;;;0.20;;
75854;SDS011;64502;59.976;30.316;2023-03-15T09:37:11;0.50;;;0.10;;
75854;SDS011;64502;59.976;30.316;2023-03-15T09:39:36;1.55;;;0.40;;
75854;SDS011;64502;59.976;30.316;2023-03-15T09:42:02;1.13;;;0.22;;
75854;SDS011;64502;59.976;30.316;2023-03-15T09:50:02;0.68;;;0.10;;
75854;SDS011;64502;59.976;30.316;2023-03-15T09:52:33;0.45;;;0.00;;
75854;SDS011;64502;59.976;30.316;2023-03-15T09:55:35;2.45;;;0.10;;
75854;SDS011;64502;59.976;30.316;2023-03-15T09:58:00;0.90;;;0.28;;
75854;SDS011;64502;59.976;30.316;2023-03-15T10:00:39;0.57;;;0.10;;
75854;SDS011;64502;59.976;30.316;2023-03-15T10:03:11;0.60;;;0.10;;
75854;SDS011;64502;59.976;30.316;2023-03-15T10:05:46;1.58;;;0.20;;
75854;SDS011;64502;59.976;30.316;2023-03-15T10:08:18;1.35;;;0.20;;
75854;SDS011;64502;59.976;30.316;2023-03-15T10:10:51;0.80;;;0.20;;
75854;SDS011;64502;59.976;30.316;2023-03-15T10:29:51;1.13;;;0.22;;
75854;SDS011;64502;59.976;30.316;2023-03-15T10:32:21;1.23;;;0.35;;
75854;SDS011;64502;59.976;30.316;2023-03-15T10:34:54;1.85;;;0.40;;
75854;SDS011;64502;59.976;30.316;2023-03-15T10:37:24;3.70;;;0.38;;
75854;SDS011;64502;59.976;30.316;2023-03-15T10:39:55;1.42;;;0.50;;
75854;SDS011;64502;59.976;30.316;2023-03-15T10:42:30;1.02;;;0.32;;
75854;SDS011;64502;59.976;30.316;2023-03-15T10:44:57;1.02;;;0.32;;
75854;SDS011;64502;59.976;30.316;2023-03-15T10:47:25;3.40;;;0.60;;
75854;SDS011;64502;59.976;30.316;2023-03-15T10:49:55;3.05;;;0.40;;
75854;SDS011;64502;59.976;30.316;2023-03-15T10:52:26;2.28;;;0.25;;
75854;SDS011;64502;59.976;30.316;2023-03-15T10:57:38;2.10;;;0.55;;
75854;SDS011;64502;59.976;30.316;2023-03-15T11:03:02;1.48;;;0.60;;
75854;SDS011;64502;59.976;30.316;2023-03-15T11:05:30;0.93;;;0.30;;
75854;SDS011;64502;59.976;30.316;2023-03-15T11:08:05;1.38;;;0.32;;
75854;SDS011;64502;59.976;30.316;2023-03-15T11:10:39;1.08;;;0.10;;
75854;SDS011;64502;59.976;30.316;2023-03-15T11:13:09;2.65;;;0.40;;
75854;SDS011;64502;59.976;30.316;2023-03-15T11:15:46;2.55;;;0.57;;
75854;SDS011;64502;59.976;30.316;2023-03-15T11:18:17;1.20;;;0.40;;
75854;SDS011;64502;59.976;30.316;2023-03-15T11:20:48;1.02;;;0.22;;
75854;SDS011;64502;59.976;30.316;2023-03-15T11:23:26;1.05;;;0.13;;
75854;SDS011;64502;59.976;30.316;2023-03-15T11:25:53;1.27;;;0.10;;
75854;SDS011;64502;59.976;30.316;2023-03-15T11:28:27;1.27;;;0.30;;
75854;SDS011;64502;59.976;30.316;2023-03-15T11:30:58;0.88;;;0.20;;
75854;SDS011;64502;59.976;30.316;2023-03-15T11:33:59;2.25;;;0.20;;
75854;SDS011;64502;59.976;30.316;2023-03-15T11:36:32;1.05;;;0.20;;
75854;SDS011;64502;59.976;30.316;2023-03-15T11:39:03;0.90;;;0.40;;
75854;SDS011;64502;59.976;30.316;2023-03-15T11:41:41;1.75;;;0.20;;
75854;SDS011;64502;59.976;30.316;2023-03-15T11:50:04;1.67;;;0.20;;
75854;SDS011;64502;59.976;30.316;2023-03-15T11:52:31;0.75;;;0.03;;
75854;SDS011;64502;59.976;30.316;2023-03-15T11:55:00;0.75;;;0.10;;
75854;SDS011;64502;59.976;30.316;2023-03-15T11:59:54;1.20;;;0.10;;
75854;SDS011;64502;59.976;30.316;2023-03-15T12:02:51;1.02;;;0.13;;
75854;SDS011;64502;59.976;30.316;2023-03-15T12:11:13;0.93;;;0.20;;
75854;SDS011;64502;59.976;30.316;2023-03-15T12:16:27;2.40;;;0.00;;
75854;SDS011;64502;59.976;30.316;2023-03-15T12:18:58;0.98;;;0.20;;
75854;SDS011;64502;59.976;30.316;2023-03-15T12:21:30;1.27;;;0.20;;
75854;SDS011;64502;59.976;30.316;2023-03-15T12:24:12;0.68;;;0.10;;
75854;SDS011;64502;59.976;30.316;2023-03-15T12:26:42;1.58;;;0.30;;
75854;SDS011;64502;59.976;30.316;2023-03-15T12:32:03;0.70;;;0.10;;
75854;SDS011;64502;59.976;30.316;2023-03-15T12:34:34;1.08;;;0.10;;
75854;SDS011;64502;59.976;30.316;2023-03-15T12:37:07;1.92;;;0.15;;
75854;SDS011;64502;59.976;30.316;2023-03-15T12:39:42;0.40;;;0.10;;
75854;SDS011;64502;59.976;30.316;2023-03-15T12:55:55;0.95;;;0.10;;
75854;SDS011;64502;59.976;30.316;2023-03-15T12:58:25;0.70;;;0.10;;
75854;SDS011;64502;59.976;30.316;2023-03-15T13:00:57;1.27;;;0.30;;
75854;SDS011;64502;59.976;30.316;2023-03-15T13:03:27;1.00;;;0.00;;
75854;SDS011;64502;59.976;30.316;2023-03-15T13:06:55;0.32;;;0.00;;
75854;SDS011;64502;59.976;30.316;2023-03-15T13:19:43;0.80;;;0.00;;
75854;SDS011;64502;59.976;30.316;2023-03-15T13:27:58;0.32;;;0.00;;
75854;SDS011;64502;59.976;30.316;2023-03-15T13:30:31;0.15;;;0.10;;
75854;SDS011;64502;59.976;30.316;2023-03-15T13:33:05;2.42;;;0.10;;
75854;SDS011;64502;59.976;30.316;2023-03-15T13:35:45;1.05;;;0.30;;
75854;SDS011;64502;59.976;30.316;2023-03-15T13:38:27;0.80;;;0.10;;
75854;SDS011;64502;59.976;30.316;2023-03-15T13:40:55;0.60;;;0.03;;
75854;SDS011;64502;59.976;30.316;2023-03-15T13:43:26;0.88;;;0.10;;
75854;SDS011;64502;59.976;30.316;2023-03-15T13:46:03;2.83;;;0.40;;
75854;SDS011;64502;59.976;30.316;2023-03-15T13:48:33;0.60;;;0.10;;
75854;SDS011;64502;59.976;30.316;2023-03-15T13:51:05;0.85;;;0.10;;
75854;SDS011;64502;59.976;30.316;2023-03-15T13:53:36;0.75;;;0.00;;
75854;SDS011;64502;59.976;30.316;2023-03-15T13:56:05;0.75;;;0.03;;
75854;SDS011;64502;59.976;30.316;2023-03-15T13:58:32;1.38;;;0.10;;
75854;SDS011;64502;59.976;30.316;2023-03-15T14:00:59;1.05;;;0.03;;
75854;SDS011;64502;59.976;30.316;2023-03-15T14:03:28;0.73;;;0.10;;
75854;SDS011;64502;59.976;30.316;2023-03-15T14:05:54;0.57;;;0.08;;
75854;SDS011;64502;59.976;30.316;2023-03-15T14:10:56;0.80;;;0.28;;
75854;SDS011;64502;59.976;30.316;2023-03-15T14:13:28;0.70;;;0.05;;
75854;SDS011;64502;59.976;30.316;2023-03-15T14:18:39;0.50;;;0.00;;
75854;SDS011;64502;59.976;30.316;2023-03-15T14:21:06;0.22;;;0.00;;
75854;SDS011;64502;59.976;30.316;2023-03-15T14:23:34;0.82;;;0.00;;
75854;SDS011;64502;59.976;30.316;2023-03-15T14:28:58;1.48;;;0.40;;
75854;SDS011;64502;59.976;30.316;2023-03-15T14:31:49;0.90;;;0.10;;
75854;SDS011;64502;59.976;30.316;2023-03-15T14:34:23;0.43;;;0.00;;
75854;SDS011;64502;59.976;30.316;2023-03-15T14:36:57;0.52;;;0.00;;
75854;SDS011;64502;59.976;30.316;2023-03-15T14:39:29;0.60;;;0.00;;
75854;SDS011;64502;59.976;30.316;2023-03-15T14:42:02;1.52;;;0.13;;
75854;SDS011;64502;59.976;30.316;2023-03-15T14:44:27;0.50;;;0.00;;
75854;SDS011;64502;59.976;30.316;2023-03-15T14:46:53;0.65;;;0.08;;
75854;SDS011;64502;59.976;30.316;2023-03-15T14:49:23;2.60;;;0.10;;
75854;SDS011;64502;59.976;30.316;2023-03-15T14:51:51;1.95;;;0.00;;
75854;SDS011;64502;59.976;30.316;2023-03-15T14:54:20;1.85;;;0.10;;
75854;SDS011;64502;59.976;30.316;2023-03-15T14:56:46;1.27;;;0.10;;
75854;SDS011;64502;59.976;30.316;2023-03-15T14:59:12;1.00;;;0.10;;
75854;SDS011;64502;59.976;30.316;2023-03-15T15:01:37;0.43;;;0.00;;
75854;SDS011;64502;59.976;30.316;2023-03-15T15:04:06;0.75;;;0.00;;
75854;SDS011;64502;59.976;30.316;2023-03-15T15:06:31;0.57;;;0.10;;
75854;SDS011;64502;59.976;30.316;2023-03-15T15:09:00;1.00;;;0.20;;
75854;SDS011;64502;59.976;30.316;2023-03-15T15:11:28;1.52;;;0.20;;
75854;SDS011;64502;59.976;30.316;2023-03-15T15:13:54;0.63;;;0.00;;
75854;SDS011;64502;59.976;30.316;2023-03-15T15:16:20;0.50;;;0.00;;
75854;SDS011;64502;59.976;30.316;2023-03-15T15:18:46;0.65;;;0.10;;
75854;SDS011;64502;59.976;30.316;2023-03-15T15:21:20;1.65;;;0.43;;
75854;SDS011;64502;59.976;30.316;2023-03-15T15:23:50;1.17;;;0.17;;
75854;SDS011;64502;59.976;30.316;2023-03-15T15:26:19;0.85;;;0.10;;
75854;SDS011;64502;59.976;30.316;2023-03-15T15:28:47;0.80;;;0.10;;
75854;SDS011;64502;59.976;30.316;2023-03-15T15:31:15;0.60;;;0.40;;
75854;SDS011;64502;59.976;30.316;2023-03-15T15:33:43;3.20;;;0.10;;
75854;SDS011;64502;59.976;30.316;2023-03-15T15:36:10;0.73;;;0.13;;
75854;SDS011;64502;59.976;30.316;2023-03-15T15:38:37;2.47;;;0.20;;
75854;SDS011;64502;59.976;30.316;2023-03-15T15:41:05;1.58;;;0.30;;
75854;SDS011;64502;59.976;30.316;2023-03-15T15:43:36;4.68;;;0.20;;
75854;SDS011;64502;59.976;30.316;2023-03-15T15:46:02;1.17;;;0.10;;
75854;SDS011;64502;59.976;30.316;2023-03-15T15:48:27;1.08;;;0.20;;
75854;SDS011;64502;59.976;30.316;2023-03-15T15:50:53;1.55;;;0.10;;
75854;SDS011;64502;59.976;30.316;2023-03-15T15:53:18;1.15;;;0.28;;
75854;SDS011;64502;59.976;30.316;2023-03-15T15:55:44;1.65;;;0.20;;
75854;SDS011;64502;59.976;30.316;2023-03-15T15:58:10;1.23;;;0.10;;
75854;SDS011;64502;59.976;30.316;2023-03-15T16:00:37;2.50;;;0.20;;
75854;SDS011;64502;59.976;30.316;2023-03-15T16:03:06;1.98;;;0.10;;
75854;SDS011;64502;59.976;30.316;2023-03-15T16:05:38;3.00;;;0.22;;
75854;SDS011;64502;59.976;30.316;2023-03-15T16:08:04;7.15;;;0.60;;